<?xml version="1.0" encoding="UTF-8" standalone="no" ?>
<gpx xmlns="http://www.topografix.com/GPX/1/1" xmlns:xsi="http://www.w3.org/2001/XMLSchema-instance" xsi:schemaLocation="http://www.topografix.com/GPX/1/1 http://www.topografix.com/GPX/1/1/gpx.xsd" version="1.1" creator="VisuGPX - https://www.visugpx.com">
  <metadata>
    <name>122011</name>
    <desc><![CDATA[superbe rando ce dimanche]]></desc>
  </metadata>
  <trk>
    <name><![CDATA[ACTIVE LOG103853]]></name>
    <trkseg>
      <trkpt lat="48.49845" lon="-4.42996">
        <ele>55.983</ele>
        <time>2011-04-10T08:38:53Z</time>
      </trkpt>
      <trkpt lat="48.49851" lon="-4.43004">
        <ele>56.537</ele>
        <time>2011-04-10T08:39:22Z</time>
      </trkpt>
      <trkpt lat="48.4985" lon="-4.43004">
        <ele>59.996</ele>
        <time>2011-04-10T08:39:26Z</time>
      </trkpt>
      <trkpt lat="48.49849" lon="-4.43004">
        <ele>63.187</ele>
        <time>2011-04-10T08:39:30Z</time>
      </trkpt>
      <trkpt lat="48.49849" lon="-4.43004">
        <ele>66.314</ele>
        <time>2011-04-10T08:39:35Z</time>
      </trkpt>
      <trkpt lat="48.49848" lon="-4.43004">
        <ele>69.514</ele>
        <time>2011-04-10T08:39:42Z</time>
      </trkpt>
      <trkpt lat="48.49848" lon="-4.43004">
        <ele>69.822</ele>
        <time>2011-04-10T08:39:43Z</time>
      </trkpt>
      <trkpt lat="48.49848" lon="-4.43008">
        <ele>70.809</ele>
        <time>2011-04-10T08:39:46Z</time>
      </trkpt>
      <trkpt lat="48.49841" lon="-4.43013">
        <ele>71.895</ele>
        <time>2011-04-10T08:39:50Z</time>
      </trkpt>
      <trkpt lat="48.49807" lon="-4.43015">
        <ele>73.37</ele>
        <time>2011-04-10T08:40:02Z</time>
      </trkpt>
      <trkpt lat="48.49786" lon="-4.42998">
        <ele>71.686</ele>
        <time>2011-04-10T08:40:08Z</time>
      </trkpt>
      <trkpt lat="48.49784" lon="-4.43032">
        <ele>71.908</ele>
        <time>2011-04-10T08:40:15Z</time>
      </trkpt>
      <trkpt lat="48.49782" lon="-4.43024">
        <ele>71.94</ele>
        <time>2011-04-10T08:40:17Z</time>
      </trkpt>
      <trkpt lat="48.49766" lon="-4.43015">
        <ele>71.688</ele>
        <time>2011-04-10T08:40:20Z</time>
      </trkpt>
      <trkpt lat="48.49675" lon="-4.42986">
        <ele>72.235</ele>
        <time>2011-04-10T08:40:39Z</time>
      </trkpt>
      <trkpt lat="48.49595" lon="-4.42933">
        <ele>74.473</ele>
        <time>2011-04-10T08:40:55Z</time>
      </trkpt>
      <trkpt lat="48.49584" lon="-4.42921">
        <ele>74.773</ele>
        <time>2011-04-10T08:40:59Z</time>
      </trkpt>
      <trkpt lat="48.49566" lon="-4.42928">
        <ele>74.187</ele>
        <time>2011-04-10T08:41:01Z</time>
      </trkpt>
      <trkpt lat="48.49554" lon="-4.42914">
        <ele>73.35</ele>
        <time>2011-04-10T08:41:04Z</time>
      </trkpt>
      <trkpt lat="48.49497" lon="-4.42954">
        <ele>69.44</ele>
        <time>2011-04-10T08:41:12Z</time>
      </trkpt>
      <trkpt lat="48.49422" lon="-4.43051">
        <ele>70.934</ele>
        <time>2011-04-10T08:41:27Z</time>
      </trkpt>
      <trkpt lat="48.49365" lon="-4.43141">
        <ele>74.068</ele>
        <time>2011-04-10T08:41:43Z</time>
      </trkpt>
      <trkpt lat="48.49322" lon="-4.43208">
        <ele>77.226</ele>
        <time>2011-04-10T08:41:59Z</time>
      </trkpt>
      <trkpt lat="48.49292" lon="-4.43255">
        <ele>78.137</ele>
        <time>2011-04-10T08:42:11Z</time>
      </trkpt>
      <trkpt lat="48.49207" lon="-4.43334">
        <ele>80.775</ele>
        <time>2011-04-10T08:42:36Z</time>
      </trkpt>
      <trkpt lat="48.49108" lon="-4.43373">
        <ele>82.868</ele>
        <time>2011-04-10T08:43:01Z</time>
      </trkpt>
      <trkpt lat="48.49022" lon="-4.43397">
        <ele>85.917</ele>
        <time>2011-04-10T08:43:21Z</time>
      </trkpt>
      <trkpt lat="48.48876" lon="-4.43411">
        <ele>87.458</ele>
        <time>2011-04-10T08:43:52Z</time>
      </trkpt>
      <trkpt lat="48.48755" lon="-4.43422">
        <ele>90.546</ele>
        <time>2011-04-10T08:44:18Z</time>
      </trkpt>
      <trkpt lat="48.48627" lon="-4.43449">
        <ele>91.662</ele>
        <time>2011-04-10T08:44:44Z</time>
      </trkpt>
      <trkpt lat="48.48475" lon="-4.43514">
        <ele>88.954</ele>
        <time>2011-04-10T08:45:10Z</time>
      </trkpt>
      <trkpt lat="48.48302" lon="-4.43589">
        <ele>91.246</ele>
        <time>2011-04-10T08:45:40Z</time>
      </trkpt>
      <trkpt lat="48.4816" lon="-4.4365">
        <ele>92.612</ele>
        <time>2011-04-10T08:46:08Z</time>
      </trkpt>
      <trkpt lat="48.48" lon="-4.43719">
        <ele>91.548</ele>
        <time>2011-04-10T08:46:36Z</time>
      </trkpt>
      <trkpt lat="48.47854" lon="-4.43786">
        <ele>92.162</ele>
        <time>2011-04-10T08:47:01Z</time>
      </trkpt>
      <trkpt lat="48.47736" lon="-4.43846">
        <ele>94.121</ele>
        <time>2011-04-10T08:47:23Z</time>
      </trkpt>
      <trkpt lat="48.47581" lon="-4.43915">
        <ele>96.559</ele>
        <time>2011-04-10T08:47:53Z</time>
      </trkpt>
      <trkpt lat="48.47462" lon="-4.43995">
        <ele>96.884</ele>
        <time>2011-04-10T08:48:17Z</time>
      </trkpt>
      <trkpt lat="48.47334" lon="-4.44097">
        <ele>96.609</ele>
        <time>2011-04-10T08:48:42Z</time>
      </trkpt>
      <trkpt lat="48.47226" lon="-4.44184">
        <ele>95.263</ele>
        <time>2011-04-10T08:49:02Z</time>
      </trkpt>
      <trkpt lat="48.47083" lon="-4.44296">
        <ele>96.786</ele>
        <time>2011-04-10T08:49:30Z</time>
      </trkpt>
      <trkpt lat="48.46975" lon="-4.44387">
        <ele>93.772</ele>
        <time>2011-04-10T08:49:50Z</time>
      </trkpt>
      <trkpt lat="48.46927" lon="-4.44438">
        <ele>90.737</ele>
        <time>2011-04-10T08:49:58Z</time>
      </trkpt>
      <trkpt lat="48.46811" lon="-4.44586">
        <ele>89.909</ele>
        <time>2011-04-10T08:50:18Z</time>
      </trkpt>
      <trkpt lat="48.46689" lon="-4.4473">
        <ele>91.102</ele>
        <time>2011-04-10T08:50:42Z</time>
      </trkpt>
      <trkpt lat="48.46555" lon="-4.44853">
        <ele>92.566</ele>
        <time>2011-04-10T08:51:07Z</time>
      </trkpt>
      <trkpt lat="48.46433" lon="-4.44946">
        <ele>94.374</ele>
        <time>2011-04-10T08:51:31Z</time>
      </trkpt>
      <trkpt lat="48.46428" lon="-4.44945">
        <ele>93.845</ele>
        <time>2011-04-10T08:51:32Z</time>
      </trkpt>
      <trkpt lat="48.46417" lon="-4.44942">
        <ele>92.461</ele>
        <time>2011-04-10T08:51:34Z</time>
      </trkpt>
      <trkpt lat="48.46396" lon="-4.45007">
        <ele>91.224</ele>
        <time>2011-04-10T08:51:41Z</time>
      </trkpt>
      <trkpt lat="48.46381" lon="-4.45049">
        <ele>90.423</ele>
        <time>2011-04-10T08:51:46Z</time>
      </trkpt>
      <trkpt lat="48.4632" lon="-4.45152">
        <ele>86.902</ele>
        <time>2011-04-10T08:51:59Z</time>
      </trkpt>
      <trkpt lat="48.46232" lon="-4.45294">
        <ele>83.796</ele>
        <time>2011-04-10T08:52:16Z</time>
      </trkpt>
      <trkpt lat="48.46139" lon="-4.45438">
        <ele>83.438</ele>
        <time>2011-04-10T08:52:34Z</time>
      </trkpt>
      <trkpt lat="48.46022" lon="-4.45623">
        <ele>84.148</ele>
        <time>2011-04-10T08:52:59Z</time>
      </trkpt>
      <trkpt lat="48.45938" lon="-4.45756">
        <ele>84.882</ele>
        <time>2011-04-10T08:53:19Z</time>
      </trkpt>
      <trkpt lat="48.45864" lon="-4.45871">
        <ele>88.124</ele>
        <time>2011-04-10T08:53:37Z</time>
      </trkpt>
      <trkpt lat="48.45756" lon="-4.46008">
        <ele>89.918</ele>
        <time>2011-04-10T08:54:02Z</time>
      </trkpt>
      <trkpt lat="48.45632" lon="-4.46119">
        <ele>90.106</ele>
        <time>2011-04-10T08:54:26Z</time>
      </trkpt>
      <trkpt lat="48.45518" lon="-4.46214">
        <ele>88.831</ele>
        <time>2011-04-10T08:54:47Z</time>
      </trkpt>
      <trkpt lat="48.45508" lon="-4.46225">
        <ele>88.678</ele>
        <time>2011-04-10T08:54:49Z</time>
      </trkpt>
      <trkpt lat="48.45493" lon="-4.46239">
        <ele>88.163</ele>
        <time>2011-04-10T08:54:52Z</time>
      </trkpt>
      <trkpt lat="48.45473" lon="-4.46262">
        <ele>87.625</ele>
        <time>2011-04-10T08:54:56Z</time>
      </trkpt>
      <trkpt lat="48.45353" lon="-4.4641">
        <ele>84.579</ele>
        <time>2011-04-10T08:55:18Z</time>
      </trkpt>
      <trkpt lat="48.45328" lon="-4.46445">
        <ele>84.881</ele>
        <time>2011-04-10T08:55:23Z</time>
      </trkpt>
      <trkpt lat="48.45314" lon="-4.46466">
        <ele>85.016</ele>
        <time>2011-04-10T08:55:27Z</time>
      </trkpt>
      <trkpt lat="48.4531" lon="-4.465">
        <ele>86.078</ele>
        <time>2011-04-10T08:55:31Z</time>
      </trkpt>
      <trkpt lat="48.45297" lon="-4.46491">
        <ele>85.689</ele>
        <time>2011-04-10T08:55:33Z</time>
      </trkpt>
      <trkpt lat="48.45222" lon="-4.46572">
        <ele>85.126</ele>
        <time>2011-04-10T08:55:49Z</time>
      </trkpt>
      <trkpt lat="48.45194" lon="-4.46602">
        <ele>85.719</ele>
        <time>2011-04-10T08:55:55Z</time>
      </trkpt>
      <trkpt lat="48.45138" lon="-4.46637">
        <ele>87.593</ele>
        <time>2011-04-10T08:56:09Z</time>
      </trkpt>
      <trkpt lat="48.45102" lon="-4.46661">
        <ele>86.99</ele>
        <time>2011-04-10T08:56:13Z</time>
      </trkpt>
      <trkpt lat="48.45051" lon="-4.46729">
        <ele>83.575</ele>
        <time>2011-04-10T08:56:23Z</time>
      </trkpt>
      <trkpt lat="48.45033" lon="-4.46752">
        <ele>81.964</ele>
        <time>2011-04-10T08:56:26Z</time>
      </trkpt>
      <trkpt lat="48.45027" lon="-4.46811">
        <ele>79.593</ele>
        <time>2011-04-10T08:56:31Z</time>
      </trkpt>
      <trkpt lat="48.45059" lon="-4.46988">
        <ele>79.012</ele>
        <time>2011-04-10T08:56:46Z</time>
      </trkpt>
      <trkpt lat="48.45046" lon="-4.47074">
        <ele>82.114</ele>
        <time>2011-04-10T08:56:56Z</time>
      </trkpt>
      <trkpt lat="48.45029" lon="-4.47129">
        <ele>83.647</ele>
        <time>2011-04-10T08:57:04Z</time>
      </trkpt>
      <trkpt lat="48.45029" lon="-4.47161">
        <ele>85.07</ele>
        <time>2011-04-10T08:57:08Z</time>
      </trkpt>
      <trkpt lat="48.45031" lon="-4.47178">
        <ele>86.042</ele>
        <time>2011-04-10T08:57:12Z</time>
      </trkpt>
      <trkpt lat="48.45024" lon="-4.47228">
        <ele>87.408</ele>
        <time>2011-04-10T08:57:18Z</time>
      </trkpt>
      <trkpt lat="48.45013" lon="-4.47247">
        <ele>87.742</ele>
        <time>2011-04-10T08:57:21Z</time>
      </trkpt>
      <trkpt lat="48.45005" lon="-4.47264">
        <ele>87.731</ele>
        <time>2011-04-10T08:57:26Z</time>
      </trkpt>
      <trkpt lat="48.44972" lon="-4.47452">
        <ele>85.917</ele>
        <time>2011-04-10T08:57:48Z</time>
      </trkpt>
      <trkpt lat="48.44955" lon="-4.47532">
        <ele>82.869</ele>
        <time>2011-04-10T08:57:56Z</time>
      </trkpt>
      <trkpt lat="48.44952" lon="-4.47543">
        <ele>82.678</ele>
        <time>2011-04-10T08:57:57Z</time>
      </trkpt>
      <trkpt lat="48.44937" lon="-4.47597">
        <ele>81.157</ele>
        <time>2011-04-10T08:58:02Z</time>
      </trkpt>
      <trkpt lat="48.44921" lon="-4.47642">
        <ele>80.58</ele>
        <time>2011-04-10T08:58:08Z</time>
      </trkpt>
      <trkpt lat="48.44919" lon="-4.47637">
        <ele>80.777</ele>
        <time>2011-04-10T08:58:09Z</time>
      </trkpt>
      <trkpt lat="48.44883" lon="-4.47627">
        <ele>79.732</ele>
        <time>2011-04-10T08:58:15Z</time>
      </trkpt>
      <trkpt lat="48.44773" lon="-4.47646">
        <ele>77.804</ele>
        <time>2011-04-10T08:58:39Z</time>
      </trkpt>
      <trkpt lat="48.44715" lon="-4.47643">
        <ele>75.314</ele>
        <time>2011-04-10T08:58:45Z</time>
      </trkpt>
      <trkpt lat="48.44675" lon="-4.47637">
        <ele>72.285</ele>
        <time>2011-04-10T08:58:50Z</time>
      </trkpt>
      <trkpt lat="48.44675" lon="-4.47637">
        <ele>72.159</ele>
        <time>2011-04-10T08:58:51Z</time>
      </trkpt>
      <trkpt lat="48.44558" lon="-4.47547">
        <ele>70.735</ele>
        <time>2011-04-10T08:59:06Z</time>
      </trkpt>
      <trkpt lat="48.44546" lon="-4.47538">
        <ele>71.98</ele>
        <time>2011-04-10T08:59:09Z</time>
      </trkpt>
      <trkpt lat="48.44517" lon="-4.47522">
        <ele>74.527</ele>
        <time>2011-04-10T08:59:14Z</time>
      </trkpt>
      <trkpt lat="48.44507" lon="-4.47521">
        <ele>75.16</ele>
        <time>2011-04-10T08:59:16Z</time>
      </trkpt>
      <trkpt lat="48.44493" lon="-4.47521">
        <ele>76.16</ele>
        <time>2011-04-10T08:59:19Z</time>
      </trkpt>
      <trkpt lat="48.44442" lon="-4.47529">
        <ele>79.421</ele>
        <time>2011-04-10T08:59:30Z</time>
      </trkpt>
      <trkpt lat="48.44432" lon="-4.47532">
        <ele>79.786</ele>
        <time>2011-04-10T08:59:32Z</time>
      </trkpt>
      <trkpt lat="48.44353" lon="-4.4757">
        <ele>80.583</ele>
        <time>2011-04-10T08:59:49Z</time>
      </trkpt>
      <trkpt lat="48.44311" lon="-4.47592">
        <ele>77.422</ele>
        <time>2011-04-10T08:59:56Z</time>
      </trkpt>
      <trkpt lat="48.44266" lon="-4.47616">
        <ele>74.233</ele>
        <time>2011-04-10T09:00:02Z</time>
      </trkpt>
      <trkpt lat="48.44224" lon="-4.47635">
        <ele>70.912</ele>
        <time>2011-04-10T09:00:07Z</time>
      </trkpt>
      <trkpt lat="48.44185" lon="-4.47654">
        <ele>68.496</ele>
        <time>2011-04-10T09:00:12Z</time>
      </trkpt>
      <trkpt lat="48.4414" lon="-4.47677">
        <ele>69.759</ele>
        <time>2011-04-10T09:00:17Z</time>
      </trkpt>
      <trkpt lat="48.44119" lon="-4.47683">
        <ele>71.015</ele>
        <time>2011-04-10T09:00:20Z</time>
      </trkpt>
      <trkpt lat="48.44058" lon="-4.47689">
        <ele>73.093</ele>
        <time>2011-04-10T09:00:30Z</time>
      </trkpt>
      <trkpt lat="48.44044" lon="-4.47689">
        <ele>74.615</ele>
        <time>2011-04-10T09:00:33Z</time>
      </trkpt>
      <trkpt lat="48.44044" lon="-4.47689">
        <ele>74.935</ele>
        <time>2011-04-10T09:00:34Z</time>
      </trkpt>
      <trkpt lat="48.44023" lon="-4.47685">
        <ele>75.07</ele>
        <time>2011-04-10T09:00:37Z</time>
      </trkpt>
      <trkpt lat="48.43894" lon="-4.47684">
        <ele>72.136</ele>
        <time>2011-04-10T09:00:58Z</time>
      </trkpt>
      <trkpt lat="48.43806" lon="-4.47725">
        <ele>68.986</ele>
        <time>2011-04-10T09:01:11Z</time>
      </trkpt>
      <trkpt lat="48.43735" lon="-4.47813">
        <ele>67.932</ele>
        <time>2011-04-10T09:01:26Z</time>
      </trkpt>
      <trkpt lat="48.43697" lon="-4.47862">
        <ele>68.168</ele>
        <time>2011-04-10T09:01:32Z</time>
      </trkpt>
      <trkpt lat="48.43674" lon="-4.47879">
        <ele>68.91</ele>
        <time>2011-04-10T09:01:36Z</time>
      </trkpt>
      <trkpt lat="48.4359" lon="-4.47889">
        <ele>72.049</ele>
        <time>2011-04-10T09:01:50Z</time>
      </trkpt>
      <trkpt lat="48.43541" lon="-4.47893">
        <ele>75.232</ele>
        <time>2011-04-10T09:02:00Z</time>
      </trkpt>
      <trkpt lat="48.43498" lon="-4.47897">
        <ele>78.362</ele>
        <time>2011-04-10T09:02:09Z</time>
      </trkpt>
      <trkpt lat="48.43475" lon="-4.47897">
        <ele>79.902</ele>
        <time>2011-04-10T09:02:14Z</time>
      </trkpt>
      <trkpt lat="48.4342" lon="-4.47883">
        <ele>82.482</ele>
        <time>2011-04-10T09:02:27Z</time>
      </trkpt>
      <trkpt lat="48.43358" lon="-4.47854">
        <ele>81.327</ele>
        <time>2011-04-10T09:02:40Z</time>
      </trkpt>
      <trkpt lat="48.43335" lon="-4.47837">
        <ele>79.584</ele>
        <time>2011-04-10T09:02:44Z</time>
      </trkpt>
      <trkpt lat="48.43253" lon="-4.47778">
        <ele>79.224</ele>
        <time>2011-04-10T09:02:57Z</time>
      </trkpt>
      <trkpt lat="48.43201" lon="-4.47757">
        <ele>82.284</ele>
        <time>2011-04-10T09:03:07Z</time>
      </trkpt>
      <trkpt lat="48.43143" lon="-4.47742">
        <ele>85.324</ele>
        <time>2011-04-10T09:03:18Z</time>
      </trkpt>
      <trkpt lat="48.43089" lon="-4.47728">
        <ele>88.474</ele>
        <time>2011-04-10T09:03:29Z</time>
      </trkpt>
      <trkpt lat="48.43033" lon="-4.47717">
        <ele>91.499</ele>
        <time>2011-04-10T09:03:40Z</time>
      </trkpt>
      <trkpt lat="48.42958" lon="-4.47706">
        <ele>92.391</ele>
        <time>2011-04-10T09:03:57Z</time>
      </trkpt>
      <trkpt lat="48.42917" lon="-4.47697">
        <ele>91.681</ele>
        <time>2011-04-10T09:04:06Z</time>
      </trkpt>
      <trkpt lat="48.42883" lon="-4.47689">
        <ele>91.802</ele>
        <time>2011-04-10T09:04:12Z</time>
      </trkpt>
      <trkpt lat="48.42772" lon="-4.47667">
        <ele>91.046</ele>
        <time>2011-04-10T09:04:31Z</time>
      </trkpt>
      <trkpt lat="48.42708" lon="-4.47653">
        <ele>91.348</ele>
        <time>2011-04-10T09:04:44Z</time>
      </trkpt>
      <trkpt lat="48.427" lon="-4.47627">
        <ele>90.453</ele>
        <time>2011-04-10T09:04:50Z</time>
      </trkpt>
      <trkpt lat="48.42703" lon="-4.4762">
        <ele>90.439</ele>
        <time>2011-04-10T09:04:51Z</time>
      </trkpt>
      <trkpt lat="48.42742" lon="-4.47483">
        <ele>90.787</ele>
        <time>2011-04-10T09:05:10Z</time>
      </trkpt>
      <trkpt lat="48.42753" lon="-4.47403">
        <ele>89.349</ele>
        <time>2011-04-10T09:05:20Z</time>
      </trkpt>
      <trkpt lat="48.42731" lon="-4.47355">
        <ele>89.059</ele>
        <time>2011-04-10T09:05:27Z</time>
      </trkpt>
      <trkpt lat="48.42725" lon="-4.47354">
        <ele>89.001</ele>
        <time>2011-04-10T09:05:28Z</time>
      </trkpt>
      <trkpt lat="48.42627" lon="-4.47319">
        <ele>89.841</ele>
        <time>2011-04-10T09:05:46Z</time>
      </trkpt>
      <trkpt lat="48.42599" lon="-4.47295">
        <ele>90.163</ele>
        <time>2011-04-10T09:05:52Z</time>
      </trkpt>
      <trkpt lat="48.42589" lon="-4.47285">
        <ele>89.763</ele>
        <time>2011-04-10T09:05:56Z</time>
      </trkpt>
      <trkpt lat="48.4256" lon="-4.47275">
        <ele>89.571</ele>
        <time>2011-04-10T09:05:59Z</time>
      </trkpt>
      <trkpt lat="48.42535" lon="-4.47275">
        <ele>88.809</ele>
        <time>2011-04-10T09:06:03Z</time>
      </trkpt>
      <trkpt lat="48.42448" lon="-4.47313">
        <ele>87.885</ele>
        <time>2011-04-10T09:06:17Z</time>
      </trkpt>
      <trkpt lat="48.42424" lon="-4.47345">
        <ele>87.742</ele>
        <time>2011-04-10T09:06:22Z</time>
      </trkpt>
      <trkpt lat="48.42333" lon="-4.47527">
        <ele>88.337</ele>
        <time>2011-04-10T09:06:46Z</time>
      </trkpt>
      <trkpt lat="48.42305" lon="-4.47578">
        <ele>87.153</ele>
        <time>2011-04-10T09:06:53Z</time>
      </trkpt>
      <trkpt lat="48.42301" lon="-4.47605">
        <ele>87.535</ele>
        <time>2011-04-10T09:06:56Z</time>
      </trkpt>
      <trkpt lat="48.42284" lon="-4.47616">
        <ele>88.138</ele>
        <time>2011-04-10T09:07:00Z</time>
      </trkpt>
      <trkpt lat="48.4226" lon="-4.47632">
        <ele>86.054</ele>
        <time>2011-04-10T09:07:04Z</time>
      </trkpt>
      <trkpt lat="48.42246" lon="-4.47641">
        <ele>84.754</ele>
        <time>2011-04-10T09:07:07Z</time>
      </trkpt>
      <trkpt lat="48.42196" lon="-4.47673">
        <ele>82.87</ele>
        <time>2011-04-10T09:07:13Z</time>
      </trkpt>
      <trkpt lat="48.4213" lon="-4.47706">
        <ele>79.505</ele>
        <time>2011-04-10T09:07:21Z</time>
      </trkpt>
      <trkpt lat="48.42112" lon="-4.47709">
        <ele>78.025</ele>
        <time>2011-04-10T09:07:23Z</time>
      </trkpt>
      <trkpt lat="48.4207" lon="-4.47711">
        <ele>78.513</ele>
        <time>2011-04-10T09:07:28Z</time>
      </trkpt>
      <trkpt lat="48.41996" lon="-4.47695">
        <ele>82.577</ele>
        <time>2011-04-10T09:07:40Z</time>
      </trkpt>
      <trkpt lat="48.41991" lon="-4.47694">
        <ele>82.867</ele>
        <time>2011-04-10T09:07:41Z</time>
      </trkpt>
      <trkpt lat="48.41916" lon="-4.47681">
        <ele>85.937</ele>
        <time>2011-04-10T09:07:55Z</time>
      </trkpt>
      <trkpt lat="48.41824" lon="-4.4767">
        <ele>89.018</ele>
        <time>2011-04-10T09:08:12Z</time>
      </trkpt>
      <trkpt lat="48.41737" lon="-4.47641">
        <ele>91.357</ele>
        <time>2011-04-10T09:08:30Z</time>
      </trkpt>
      <trkpt lat="48.41649" lon="-4.47592">
        <ele>90.092</ele>
        <time>2011-04-10T09:08:49Z</time>
      </trkpt>
      <trkpt lat="48.41644" lon="-4.47589">
        <ele>89.588</ele>
        <time>2011-04-10T09:08:50Z</time>
      </trkpt>
      <trkpt lat="48.41608" lon="-4.4757">
        <ele>85.319</ele>
        <time>2011-04-10T09:08:55Z</time>
      </trkpt>
      <trkpt lat="48.41575" lon="-4.47552">
        <ele>81.09</ele>
        <time>2011-04-10T09:08:59Z</time>
      </trkpt>
      <trkpt lat="48.41517" lon="-4.4753">
        <ele>77.165</ele>
        <time>2011-04-10T09:09:05Z</time>
      </trkpt>
      <trkpt lat="48.41475" lon="-4.47515">
        <ele>74.988</ele>
        <time>2011-04-10T09:09:09Z</time>
      </trkpt>
      <trkpt lat="48.41453" lon="-4.47513">
        <ele>74.163</ele>
        <time>2011-04-10T09:09:11Z</time>
      </trkpt>
      <trkpt lat="48.4139" lon="-4.47521">
        <ele>70.807</ele>
        <time>2011-04-10T09:09:17Z</time>
      </trkpt>
      <trkpt lat="48.41311" lon="-4.47555">
        <ele>69.162</ele>
        <time>2011-04-10T09:09:25Z</time>
      </trkpt>
      <trkpt lat="48.41263" lon="-4.47573">
        <ele>70.875</ele>
        <time>2011-04-10T09:09:32Z</time>
      </trkpt>
      <trkpt lat="48.41263" lon="-4.47573">
        <ele>70.295</ele>
        <time>2011-04-10T09:09:35Z</time>
      </trkpt>
      <trkpt lat="48.41197" lon="-4.47596">
        <ele>69.728</ele>
        <time>2011-04-10T09:09:44Z</time>
      </trkpt>
      <trkpt lat="48.41054" lon="-4.47628">
        <ele>68.78</ele>
        <time>2011-04-10T09:10:05Z</time>
      </trkpt>
      <trkpt lat="48.40964" lon="-4.47617">
        <ele>68.657</ele>
        <time>2011-04-10T09:10:19Z</time>
      </trkpt>
      <trkpt lat="48.40923" lon="-4.47612">
        <ele>67.142</ele>
        <time>2011-04-10T09:10:25Z</time>
      </trkpt>
      <trkpt lat="48.40882" lon="-4.47597">
        <ele>65.598</ele>
        <time>2011-04-10T09:10:31Z</time>
      </trkpt>
      <trkpt lat="48.40801" lon="-4.47553">
        <ele>62.324</ele>
        <time>2011-04-10T09:10:42Z</time>
      </trkpt>
      <trkpt lat="48.40757" lon="-4.4754">
        <ele>59.08</ele>
        <time>2011-04-10T09:10:47Z</time>
      </trkpt>
      <trkpt lat="48.40729" lon="-4.47534">
        <ele>58.475</ele>
        <time>2011-04-10T09:10:50Z</time>
      </trkpt>
      <trkpt lat="48.40698" lon="-4.4754">
        <ele>60.712</ele>
        <time>2011-04-10T09:10:54Z</time>
      </trkpt>
      <trkpt lat="48.40684" lon="-4.47543">
        <ele>61.962</ele>
        <time>2011-04-10T09:10:57Z</time>
      </trkpt>
      <trkpt lat="48.40678" lon="-4.47565">
        <ele>62.135</ele>
        <time>2011-04-10T09:10:58Z</time>
      </trkpt>
      <trkpt lat="48.40672" lon="-4.47582">
        <ele>61.83</ele>
        <time>2011-04-10T09:11:00Z</time>
      </trkpt>
      <trkpt lat="48.40652" lon="-4.47615">
        <ele>63.521</ele>
        <time>2011-04-10T09:11:05Z</time>
      </trkpt>
      <trkpt lat="48.4064" lon="-4.47631">
        <ele>64.77</ele>
        <time>2011-04-10T09:11:08Z</time>
      </trkpt>
      <trkpt lat="48.40623" lon="-4.4765">
        <ele>66.59</ele>
        <time>2011-04-10T09:11:14Z</time>
      </trkpt>
      <trkpt lat="48.4061" lon="-4.47671">
        <ele>66.927</ele>
        <time>2011-04-10T09:11:16Z</time>
      </trkpt>
      <trkpt lat="48.40545" lon="-4.47771">
        <ele>63.973</ele>
        <time>2011-04-10T09:11:31Z</time>
      </trkpt>
      <trkpt lat="48.40523" lon="-4.47805">
        <ele>65.657</ele>
        <time>2011-04-10T09:11:39Z</time>
      </trkpt>
      <trkpt lat="48.40466" lon="-4.47886">
        <ele>66.904</ele>
        <time>2011-04-10T09:11:55Z</time>
      </trkpt>
      <trkpt lat="48.40371" lon="-4.48023">
        <ele>65.541</ele>
        <time>2011-04-10T09:12:17Z</time>
      </trkpt>
      <trkpt lat="48.40294" lon="-4.48139">
        <ele>66.366</ele>
        <time>2011-04-10T09:12:38Z</time>
      </trkpt>
      <trkpt lat="48.40248" lon="-4.48205">
        <ele>64.586</ele>
        <time>2011-04-10T09:12:53Z</time>
      </trkpt>
      <trkpt lat="48.40169" lon="-4.48328">
        <ele>62.292</ele>
        <time>2011-04-10T09:13:13Z</time>
      </trkpt>
      <trkpt lat="48.40147" lon="-4.48362">
        <ele>61.782</ele>
        <time>2011-04-10T09:13:23Z</time>
      </trkpt>
      <trkpt lat="48.4013" lon="-4.48389">
        <ele>59.108</ele>
        <time>2011-04-10T09:13:34Z</time>
      </trkpt>
      <trkpt lat="48.40117" lon="-4.4841">
        <ele>55.693</ele>
        <time>2011-04-10T09:13:39Z</time>
      </trkpt>
      <trkpt lat="48.40082" lon="-4.48455">
        <ele>53.468</ele>
        <time>2011-04-10T09:13:43Z</time>
      </trkpt>
      <trkpt lat="48.40064" lon="-4.4848">
        <ele>51.538</ele>
        <time>2011-04-10T09:13:46Z</time>
      </trkpt>
      <trkpt lat="48.40005" lon="-4.48564">
        <ele>55.094</ele>
        <time>2011-04-10T09:13:58Z</time>
      </trkpt>
      <trkpt lat="48.39999" lon="-4.48573">
        <ele>55.61</ele>
        <time>2011-04-10T09:14:08Z</time>
      </trkpt>
      <trkpt lat="48.3999" lon="-4.48585">
        <ele>55.09</ele>
        <time>2011-04-10T09:14:19Z</time>
      </trkpt>
      <trkpt lat="48.3993" lon="-4.48677">
        <ele>56.335</ele>
        <time>2011-04-10T09:14:35Z</time>
      </trkpt>
      <trkpt lat="48.39861" lon="-4.48792">
        <ele>59.143</ele>
        <time>2011-04-10T09:14:54Z</time>
      </trkpt>
      <trkpt lat="48.39808" lon="-4.48876">
        <ele>61.281</ele>
        <time>2011-04-10T09:15:13Z</time>
      </trkpt>
      <trkpt lat="48.39807" lon="-4.48878">
        <ele>61.408</ele>
        <time>2011-04-10T09:15:26Z</time>
      </trkpt>
      <trkpt lat="48.39795" lon="-4.48907">
        <ele>60.529</ele>
        <time>2011-04-10T09:15:55Z</time>
      </trkpt>
      <trkpt lat="48.39795" lon="-4.48907">
        <ele>60.347</ele>
        <time>2011-04-10T09:15:57Z</time>
      </trkpt>
      <trkpt lat="48.39761" lon="-4.48939">
        <ele>61.051</ele>
        <time>2011-04-10T09:16:05Z</time>
      </trkpt>
      <trkpt lat="48.39757" lon="-4.48934">
        <ele>61.464</ele>
        <time>2011-04-10T09:16:06Z</time>
      </trkpt>
      <trkpt lat="48.39752" lon="-4.4892">
        <ele>62.025</ele>
        <time>2011-04-10T09:16:09Z</time>
      </trkpt>
      <trkpt lat="48.39723" lon="-4.48899">
        <ele>62.895</ele>
        <time>2011-04-10T09:16:14Z</time>
      </trkpt>
      <trkpt lat="48.3966" lon="-4.4888">
        <ele>66.203</ele>
        <time>2011-04-10T09:16:27Z</time>
      </trkpt>
      <trkpt lat="48.39602" lon="-4.48863">
        <ele>69.246</ele>
        <time>2011-04-10T09:16:39Z</time>
      </trkpt>
      <trkpt lat="48.39533" lon="-4.48845">
        <ele>69.377</ele>
        <time>2011-04-10T09:16:55Z</time>
      </trkpt>
      <trkpt lat="48.39448" lon="-4.48821">
        <ele>66.22</ele>
        <time>2011-04-10T09:17:10Z</time>
      </trkpt>
      <trkpt lat="48.3936" lon="-4.48795">
        <ele>64.056</ele>
        <time>2011-04-10T09:17:24Z</time>
      </trkpt>
      <trkpt lat="48.39283" lon="-4.48773">
        <ele>60.989</ele>
        <time>2011-04-10T09:17:35Z</time>
      </trkpt>
      <trkpt lat="48.39231" lon="-4.48758">
        <ele>59.452</ele>
        <time>2011-04-10T09:17:42Z</time>
      </trkpt>
      <trkpt lat="48.39189" lon="-4.48782">
        <ele>57.595</ele>
        <time>2011-04-10T09:17:48Z</time>
      </trkpt>
      <trkpt lat="48.39171" lon="-4.48802">
        <ele>56.087</ele>
        <time>2011-04-10T09:17:51Z</time>
      </trkpt>
      <trkpt lat="48.39161" lon="-4.48815">
        <ele>55.732</ele>
        <time>2011-04-10T09:17:53Z</time>
      </trkpt>
      <trkpt lat="48.39155" lon="-4.48863">
        <ele>54.996</ele>
        <time>2011-04-10T09:17:58Z</time>
      </trkpt>
      <trkpt lat="48.39203" lon="-4.48957">
        <ele>51.976</ele>
        <time>2011-04-10T09:18:10Z</time>
      </trkpt>
      <trkpt lat="48.3926" lon="-4.49068">
        <ele>48.901</ele>
        <time>2011-04-10T09:18:23Z</time>
      </trkpt>
      <trkpt lat="48.39289" lon="-4.4912">
        <ele>45.327</ele>
        <time>2011-04-10T09:18:29Z</time>
      </trkpt>
      <trkpt lat="48.3932" lon="-4.49172">
        <ele>42.982</ele>
        <time>2011-04-10T09:18:35Z</time>
      </trkpt>
      <trkpt lat="48.39337" lon="-4.49201">
        <ele>39.794</ele>
        <time>2011-04-10T09:18:38Z</time>
      </trkpt>
      <trkpt lat="48.39342" lon="-4.4921">
        <ele>39.551</ele>
        <time>2011-04-10T09:18:39Z</time>
      </trkpt>
      <trkpt lat="48.394" lon="-4.49328">
        <ele>39.13</ele>
        <time>2011-04-10T09:18:53Z</time>
      </trkpt>
      <trkpt lat="48.39403" lon="-4.49382">
        <ele>39.744</ele>
        <time>2011-04-10T09:19:00Z</time>
      </trkpt>
      <trkpt lat="48.39379" lon="-4.49508">
        <ele>43.364</ele>
        <time>2011-04-10T09:19:17Z</time>
      </trkpt>
      <trkpt lat="48.39352" lon="-4.49637">
        <ele>46.908</ele>
        <time>2011-04-10T09:19:33Z</time>
      </trkpt>
      <trkpt lat="48.39323" lon="-4.49778">
        <ele>49.911</ele>
        <time>2011-04-10T09:19:53Z</time>
      </trkpt>
      <trkpt lat="48.39275" lon="-4.50001">
        <ele>53.04</ele>
        <time>2011-04-10T09:20:28Z</time>
      </trkpt>
      <trkpt lat="48.39233" lon="-4.5021">
        <ele>51.118</ele>
        <time>2011-04-10T09:20:56Z</time>
      </trkpt>
      <trkpt lat="48.39204" lon="-4.50357">
        <ele>50.437</ele>
        <time>2011-04-10T09:21:12Z</time>
      </trkpt>
      <trkpt lat="48.39203" lon="-4.50362">
        <ele>50.478</ele>
        <time>2011-04-10T09:21:15Z</time>
      </trkpt>
      <trkpt lat="48.39186" lon="-4.50427">
        <ele>51.571</ele>
        <time>2011-04-10T09:21:21Z</time>
      </trkpt>
      <trkpt lat="48.39163" lon="-4.50543">
        <ele>54.833</ele>
        <time>2011-04-10T09:21:36Z</time>
      </trkpt>
      <trkpt lat="48.39127" lon="-4.50659">
        <ele>54.989</ele>
        <time>2011-04-10T09:21:52Z</time>
      </trkpt>
      <trkpt lat="48.39007" lon="-4.50737">
        <ele>53.79</ele>
        <time>2011-04-10T09:22:12Z</time>
      </trkpt>
      <trkpt lat="48.38933" lon="-4.50821">
        <ele>56.955</ele>
        <time>2011-04-10T09:22:27Z</time>
      </trkpt>
      <trkpt lat="48.38918" lon="-4.50894">
        <ele>60.514</ele>
        <time>2011-04-10T09:22:40Z</time>
      </trkpt>
      <trkpt lat="48.38916" lon="-4.50899">
        <ele>60.754</ele>
        <time>2011-04-10T09:22:41Z</time>
      </trkpt>
      <trkpt lat="48.38908" lon="-4.50934">
        <ele>62.399</ele>
        <time>2011-04-10T09:22:48Z</time>
      </trkpt>
      <trkpt lat="48.38875" lon="-4.51012">
        <ele>65.546</ele>
        <time>2011-04-10T09:23:05Z</time>
      </trkpt>
      <trkpt lat="48.38855" lon="-4.51069">
        <ele>68.955</ele>
        <time>2011-04-10T09:23:18Z</time>
      </trkpt>
      <trkpt lat="48.3882" lon="-4.51171">
        <ele>71.872</ele>
        <time>2011-04-10T09:23:40Z</time>
      </trkpt>
      <trkpt lat="48.38809" lon="-4.51201">
        <ele>74.143</ele>
        <time>2011-04-10T09:23:50Z</time>
      </trkpt>
      <trkpt lat="48.38805" lon="-4.51196">
        <ele>73.846</ele>
        <time>2011-04-10T09:23:54Z</time>
      </trkpt>
      <trkpt lat="48.38787" lon="-4.51178">
        <ele>72.377</ele>
        <time>2011-04-10T09:24:01Z</time>
      </trkpt>
      <trkpt lat="48.38771" lon="-4.51162">
        <ele>71.999</ele>
        <time>2011-04-10T09:24:04Z</time>
      </trkpt>
      <trkpt lat="48.38757" lon="-4.51148">
        <ele>70.606</ele>
        <time>2011-04-10T09:24:07Z</time>
      </trkpt>
      <trkpt lat="48.3872" lon="-4.51111">
        <ele>69.561</ele>
        <time>2011-04-10T09:24:15Z</time>
      </trkpt>
      <trkpt lat="48.38689" lon="-4.51101">
        <ele>67.27</ele>
        <time>2011-04-10T09:24:25Z</time>
      </trkpt>
      <trkpt lat="48.38671" lon="-4.51096">
        <ele>67.327</ele>
        <time>2011-04-10T09:24:31Z</time>
      </trkpt>
      <trkpt lat="48.38649" lon="-4.51142">
        <ele>68.52</ele>
        <time>2011-04-10T09:24:37Z</time>
      </trkpt>
      <trkpt lat="48.38639" lon="-4.51162">
        <ele>69.356</ele>
        <time>2011-04-10T09:24:41Z</time>
      </trkpt>
      <trkpt lat="48.38633" lon="-4.51178">
        <ele>70.328</ele>
        <time>2011-04-10T09:24:44Z</time>
      </trkpt>
      <trkpt lat="48.38613" lon="-4.51192">
        <ele>70.981</ele>
        <time>2011-04-10T09:24:50Z</time>
      </trkpt>
      <trkpt lat="48.38598" lon="-4.51189">
        <ele>69.658</ele>
        <time>2011-04-10T09:24:53Z</time>
      </trkpt>
      <trkpt lat="48.38532" lon="-4.51167">
        <ele>68.004</ele>
        <time>2011-04-10T09:25:04Z</time>
      </trkpt>
      <trkpt lat="48.38486" lon="-4.51153">
        <ele>68.813</ele>
        <time>2011-04-10T09:25:13Z</time>
      </trkpt>
      <trkpt lat="48.3844" lon="-4.51163">
        <ele>72.071</ele>
        <time>2011-04-10T09:25:24Z</time>
      </trkpt>
      <trkpt lat="48.38429" lon="-4.51167">
        <ele>72.537</ele>
        <time>2011-04-10T09:25:27Z</time>
      </trkpt>
      <trkpt lat="48.38419" lon="-4.51145">
        <ele>71.718</ele>
        <time>2011-04-10T09:25:31Z</time>
      </trkpt>
      <trkpt lat="48.38409" lon="-4.51052">
        <ele>68.478</ele>
        <time>2011-04-10T09:25:42Z</time>
      </trkpt>
      <trkpt lat="48.38401" lon="-4.50975">
        <ele>65.36</ele>
        <time>2011-04-10T09:25:49Z</time>
      </trkpt>
      <trkpt lat="48.38395" lon="-4.5093">
        <ele>63.989</ele>
        <time>2011-04-10T09:25:53Z</time>
      </trkpt>
      <trkpt lat="48.38384" lon="-4.50905">
        <ele>64.251</ele>
        <time>2011-04-10T09:25:57Z</time>
      </trkpt>
      <trkpt lat="48.38325" lon="-4.50913">
        <ele>63.572</ele>
        <time>2011-04-10T09:26:11Z</time>
      </trkpt>
    </trkseg>
  </trk>
</gpx>